Observation data for Childress on 01/19/2019      Previous  Date  Next       Current Mesonet Observations  Soil Data  Daily Summary Page  Observations in Plain Language
KCXS 190600Z 34024G33KT 02/M01 A2998 RMK A01 T00161014  RH  081%=      5-min Rain = 0
KCXS 190605Z 34022G34KT 02/M01 A2998 RMK A01 T00171014  RH  080%=      5-min Rain = 0
KCXS 190610Z 34025G32KT 02/M02 A2998 RMK A01 T00171018  RH  078%=      5-min Rain = 0
KCXS 190615Z 34026G33KT 02/M02 A2998 RMK A01 T00171023  RH  075%=      5-min Rain = 0
KCXS 190620Z 34026G35KT 02/M03 A2999 RMK A01 T00171025  RH  074%=      5-min Rain = 0
KCXS 190625Z 34020G27KT 02/M02 A30 RMK A01 T00171024  RH  075%=      5-min Rain = 0
KCXS 190630Z 34023G32KT 02/M03 A30 RMK A01 T00181025  RH  074%=      5-min Rain = 0
KCXS 190635Z 34024G35KT 02/M03 A30 RMK A01 T00191027  RH  072%=      5-min Rain = 0
KCXS 190640Z 34026G38KT 02/M03 A3001 RMK A01 T00191030  RH  071%=      5-min Rain = 0
KCXS 190645Z 34027G35KT 02/M03 A3001 RMK A01 T00191031  RH  070%=      5-min Rain = 0
KCXS 190650Z 35025G34KT 02/M03 A3001 RMK A01 T00181031  RH  071%=      5-min Rain = 0
KCXS 190655Z 35022G31KT 02/M03 A3002 RMK A01 T00181030  RH  071%=      5-min Rain = 0
KCXS 190700Z 35019G25KT 02/M03 A3002 RMK A01 T00181030  RH  071%=      5-min Rain = 0
KCXS 190705Z 35021G28KT 02/M03 A3002 RMK A01 T00171030  RH  072%=      5-min Rain = 0
KCXS 190710Z 35018G24KT 02/M03 A3002 RMK A01 T00171029  RH  072%=      5-min Rain = 0
KCXS 190715Z 35017KT 02/M03 A3003 RMK A01 T00171028  RH  073%=      5-min Rain = 0
KCXS 190720Z 34017G23KT 02/M03 A3003 RMK A01 T00171028  RH  073%=      5-min Rain = 0
KCXS 190725Z 34021G31KT 02/M03 A3003 RMK A01 T00181030  RH  071%=      5-min Rain = 0
KCXS 190730Z 34019G30KT 02/M03 A3003 RMK A01 T00191031  RH  070%=      5-min Rain = 0
KCXS 190735Z 34020G25KT 02/M03 A3003 RMK A01 T00191032  RH  070%=      5-min Rain = 0
KCXS 190740Z 34019G25KT 02/M03 A3003 RMK A01 T00191032  RH  069%=      5-min Rain = 0
KCXS 190745Z 34017G24KT 02/M03 A3004 RMK A01 T00191032  RH  069%=      5-min Rain = 0
KCXS 190750Z 34020G26KT 02/M03 A3004 RMK A01 T00201031  RH  069%=      5-min Rain = 0
KCXS 190755Z 33018G24KT 02/M03 A3004 RMK A01 T00201031  RH  069%=      5-min Rain = 0
KCXS 190800Z 33021G30KT 02/M03 A3004 RMK A01 T00211031  RH  069%=      5-min Rain = 0
KCXS 190805Z 33020G27KT 02/M03 A3004 RMK A01 T00221031  RH  069%=      5-min Rain = 0
KCXS 190810Z 34020G28KT 02/M03 A3004 RMK A01 T00221031  RH  069%=      5-min Rain = 0
KCXS 190815Z 33021G28KT 02/M03 A3004 RMK A01 T00221031  RH  068%=      5-min Rain = 0
KCXS 190820Z 33019G25KT 02/M03 A3004 RMK A01 T00231031  RH  068%=      5-min Rain = 0
KCXS 190825Z 33021G32KT 02/M03 A3004 RMK A01 T00231031  RH  068%=      5-min Rain = 0
KCXS 190830Z 33020G26KT 02/M03 A3005 RMK A01 T00231030  RH  068%=      5-min Rain = 0
KCXS 190835Z 33018G25KT 02/M03 A3005 RMK A01 T00241030  RH  068%=      5-min Rain = 0
KCXS 190840Z 33023G29KT 02/M03 A3005 RMK A01 T00241030  RH  068%=      5-min Rain = 0
KCXS 190845Z 33018G26KT 02/M03 A3005 RMK A01 T00241029  RH  068%=      5-min Rain = 0
KCXS 190850Z 34025G34KT 03/M03 A3005 RMK A01 T00251030  RH  067%=      5-min Rain = 0
KCXS 190855Z 34023G30KT 03/M03 A3006 RMK A01 T00251031  RH  067%=      5-min Rain = 0
KCXS 190900Z 33021G27KT 02/M03 A3006 RMK A01 T00241031  RH  067%=      5-min Rain = 0
KCXS 190905Z 33019G27KT 02/M03 A3007 RMK A01 T00231030  RH  068%=      5-min Rain = 0
KCXS 190910Z 33022G31KT 02/M04 A3007 RMK A01 T00211036  RH  066%=      5-min Rain = 0
KCXS 190915Z 33022G29KT 02/M04 A3008 RMK A01 T00191038  RH  066%=      5-min Rain = 0
KCXS 190920Z 33023G33KT 02/M04 A3008 RMK A01 T00181039  RH  066%=      5-min Rain = 0
KCXS 190925Z 33021G29KT 02/M04 A3008 RMK A01 T00171040  RH  066%=      5-min Rain = 0
KCXS 190930Z 33025G34KT 02/M04 A3008 RMK A01 T00161043  RH  065%=      5-min Rain = 0
KCXS 190935Z 32023G31KT 01/M05 A3009 RMK A01 T00141046  RH  064%=      5-min Rain = 0
KCXS 190940Z 33027G37KT 01/M05 A3009 RMK A01 T00121050  RH  064%=      5-min Rain = 0
KCXS 190945Z 33027G34KT 01/M05 A3009 RMK A01 T00101052  RH  063%=      5-min Rain = 0
KCXS 190950Z 34026G33KT 01/M05 A301 RMK A01 T00081053  RH  064%=      5-min Rain = 0
KCXS 190955Z 34028G42KT 01/M06 A301 RMK A01 T00061055  RH  064%=      5-min Rain = 0
KCXS 191000Z 34029G37KT 00/M06 A301 RMK A01 T00041056  RH  064%=      5-min Rain = 0
KCXS 191005Z 34026G34KT 00/M06 A3011 RMK A01 T00031056  RH  065%=      5-min Rain = 0
KCXS 191010Z 34024G31KT 00/M06 A3011 RMK A01 T00011056  RH  066%=      5-min Rain = 0
KCXS 191015Z 34023G29KT 00/06 A3012 RMK A01 T00-00-56  RH  066%=      5-min Rain = 0
KCXS 191020Z 34022G28KT M00/M06 A3012 RMK A01 T10011055  RH  067%=      5-min Rain = 0
KCXS 191025Z 34018G23KT M00/M06 A3012 RMK A01 T10031055  RH  068%=      5-min Rain = 0
KCXS 191030Z 34017G26KT M01/M06 A3012 RMK A01 T10051055  RH  069%=      5-min Rain = 0
KCXS 191035Z 34017G24KT M01/M06 A3013 RMK A01 T10051055  RH  069%=      5-min Rain = 0
KCXS 191040Z 34018G32KT M01/M05 A3013 RMK A01 T10051054  RH  069%=      5-min Rain = 0
KCXS 191045Z 34022G31KT M01/M06 A3013 RMK A01 T10051055  RH  069%=      5-min Rain = 0
KCXS 191050Z 34021G31KT M01/M06 A3013 RMK A01 T10051055  RH  069%=      5-min Rain = 0
KCXS 191055Z 34023G30KT M01/M06 A3013 RMK A01 T10051056  RH  068%=      5-min Rain = 0
KCXS 191100Z 34021G29KT M01/M06 A3013 RMK A01 T10051057  RH  068%=      5-min Rain = 0
KCXS 191105Z 33020G26KT M01/M06 A3013 RMK A01 T10061057  RH  068%=      5-min Rain = 0
KCXS 191110Z 34019G26KT M01/M06 A3013 RMK A01 T10061057  RH  069%=      5-min Rain = 0
KCXS 191115Z 34024G30KT M01/M06 A3013 RMK A01 T10061058  RH  068%=      5-min Rain = 0
KCXS 191120Z 34022G28KT M01/M06 A3013 RMK A01 T10061059  RH  068%=      5-min Rain = 0
KCXS 191125Z 34022G31KT M01/M06 A3013 RMK A01 T10061059  RH  067%=      5-min Rain = 0
KCXS 191130Z 33022G33KT M01/M06 A3013 RMK A01 T10061059  RH  067%=      5-min Rain = 0
KCXS 191135Z 33020G28KT M01/M06 A3014 RMK A01 T10061059  RH  067%=      5-min Rain = 0
KCXS 191140Z 33018G24KT M01/M06 A3014 RMK A01 T10071059  RH  068%=      5-min Rain = 0
KCXS 191145Z 33018G23KT M01/M06 A3015 RMK A01 T10081059  RH  068%=      5-min Rain = 0
KCXS 191150Z 33017KT M01/M06 A3015 RMK A01 T10091058  RH  069%=      5-min Rain = 0
KCXS 191155Z 32015G20KT M01/M06 A3016 RMK A01 T10091058  RH  070%=      5-min Rain = 0
KCXS 191200Z 32013KT M01/M06 A3016 RMK A01 T10101057  RH  071%=      5-min Rain = 0
KCXS 191205Z 32012G20KT M01/M06 A3016 RMK A01 T10111057  RH  071%=      5-min Rain = 0
KCXS 191210Z 32014G19KT M01/M06 A3016 RMK A01 T10111056  RH  072%=      5-min Rain = 0
KCXS 191215Z 32018G26KT M01/M06 A3017 RMK A01 T10111058  RH  070%=      5-min Rain = 0
KCXS 191220Z 33022G28KT M01/M06 A3017 RMK A01 T10101062  RH  068%=      5-min Rain = 0
KCXS 191225Z 33022G29KT M01/M06 A3017 RMK A01 T10101064  RH  067%=      5-min Rain = 0
KCXS 191230Z 33019G24KT M01/M06 A3018 RMK A01 T10111064  RH  067%=      5-min Rain = 0
KCXS 191235Z 33017G23KT M01/M06 A3018 RMK A01 T10121064  RH  068%=      5-min Rain = 0
KCXS 191240Z 33016G23KT M01/M06 A3018 RMK A01 T10131063  RH  068%=      5-min Rain = 0
KCXS 191245Z 33019G27KT M01/M06 A3019 RMK A01 T10121064  RH  068%=      5-min Rain = 0
KCXS 191250Z 33017G24KT M01/M06 A3019 RMK A01 T10121064  RH  068%=      5-min Rain = 0
KCXS 191255Z 33016G22KT M01/M06 A302 RMK A01 T10121064  RH  068%=      5-min Rain = 0
KCXS 191300Z 33016G23KT M01/M07 A302 RMK A01 T10121065  RH  067%=      5-min Rain = 0
KCXS 191305Z 33018G25KT M01/M07 A302 RMK A01 T10121065  RH  067%=      5-min Rain = 0
KCXS 191310Z 33018G24KT M01/M07 A302 RMK A01 T10121066  RH  067%=      5-min Rain = 0
KCXS 191315Z 32019G27KT M01/M07 A3021 RMK A01 T10121066  RH  067%=      5-min Rain = 0
KCXS 191320Z 33018G24KT M01/M07 A3021 RMK A01 T10131066  RH  067%=      5-min Rain = 0
KCXS 191325Z 33016G22KT M01/M07 A3022 RMK A01 T10131066  RH  068%=      5-min Rain = 0
KCXS 191330Z 33017G22KT M01/M07 A3022 RMK A01 T10131066  RH  068%=      5-min Rain = 0
KCXS 191335Z 33018G24KT M01/M07 A3022 RMK A01 T10131066  RH  068%=      5-min Rain = 0
KCXS 191340Z 33017KT M01/M07 A3022 RMK A01 T10141065  RH  068%=      5-min Rain = 0
KCXS 191345Z 33018G24KT M01/M07 A3023 RMK A01 T10141065  RH  068%=      5-min Rain = 0
KCXS 191350Z 33017G22KT M01/M07 A3023 RMK A01 T10141065  RH  068%=      5-min Rain = 0
KCXS 191355Z 33017G22KT M02/M07 A3023 RMK A01 T10151065  RH  069%=      5-min Rain = 0
KCXS 191400Z 33017G23KT M02/M07 A3023 RMK A01 T10151065  RH  069%=      5-min Rain = 0
KCXS 191405Z 33017G23KT M02/M07 A3023 RMK A01 T10151065  RH  069%=      5-min Rain = 0
KCXS 191410Z 33018G23KT M01/M07 A3024 RMK A01 T10141065  RH  068%=      5-min Rain = 0
KCXS 191415Z 33017G22KT M01/M06 A3024 RMK A01 T10141064  RH  069%=      5-min Rain = 0
KCXS 191420Z 33017G22KT M01/M06 A3024 RMK A01 T10141064  RH  069%=      5-min Rain = 0
KCXS 191425Z 33017G23KT M01/M06 A3024 RMK A01 T10131063  RH  069%=      5-min Rain = 0
KCXS 191430Z 33017G22KT M01/M06 A3025 RMK A01 T10121062  RH  069%=      5-min Rain = 0
KCXS 191435Z 33019G25KT M01/M06 A3025 RMK A01 T10101062  RH  068%=      5-min Rain = 0
KCXS 191440Z 33020G27KT M01/M06 A3025 RMK A01 T10091062  RH  067%=      5-min Rain = 0
KCXS 191445Z 33021G26KT M01/M06 A3025 RMK A01 T10081063  RH  066%=      5-min Rain = 0
KCXS 191450Z 33022G30KT M01/M07 A3025 RMK A01 T10071065  RH  065%=      5-min Rain = 0
KCXS 191455Z 33021G27KT M01/M07 A3026 RMK A01 T10061065  RH  064%=      5-min Rain = 0
KCXS 191500Z 33021G29KT M01/M07 A3026 RMK A01 T10051066  RH  063%=      5-min Rain = 0
KCXS 191505Z 33024G32KT M00/M07 A3026 RMK A01 T10041069  RH  062%=      5-min Rain = 0
KCXS 191510Z 33022G28KT M00/M07 A3027 RMK A01 T10031069  RH  061%=      5-min Rain = 0
KCXS 191515Z 33021G28KT M00/M07 A3028 RMK A01 T10021069  RH  061%=      5-min Rain = 0
KCXS 191520Z 33023G32KT M00/M07 A3028 RMK A01 T10011070  RH  060%=      5-min Rain = 0
KCXS 191525Z 33022G30KT M00/M07 A3028 RMK A01 T10011070  RH  060%=      5-min Rain = 0
KCXS 191530Z 33024G30KT 00/M07 A3029 RMK A01 T00011070  RH  059%=      5-min Rain = 0
KCXS 191535Z 33021G32KT 00/M07 A3029 RMK A01 T00021070  RH  058%=      5-min Rain = 0
KCXS 191540Z 34021G26KT 00/M07 A3029 RMK A01 T00041069  RH  058%=      5-min Rain = 0
KCXS 191545Z 33021G30KT 01/M07 A3029 RMK A01 T00061069  RH  057%=      5-min Rain = 0
KCXS 191550Z 34021G28KT 01/M07 A303 RMK A01 T00061071  RH  056%=      5-min Rain = 0
KCXS 191555Z 33022G29KT 01/M07 A303 RMK A01 T00081072  RH  055%=      5-min Rain = 0
KCXS 191600Z 33024G31KT 01/M07 A303 RMK A01 T00091074  RH  054%=      5-min Rain = 0
KCXS 191605Z 33025G30KT 01/M08 A303 RMK A01 T00101075  RH  053%=      5-min Rain = 0
KCXS 191610Z 33024G30KT 01/M08 A303 RMK A01 T00111075  RH  052%=      5-min Rain = 0
KCXS 191615Z 34018G25KT 02/M07 A303 RMK A01 T00151072  RH  052%=      5-min Rain = 0
KCXS 191620Z 33024G31KT 02/M07 A303 RMK A01 T00161073  RH  052%=      5-min Rain = 0
KCXS 191625Z 34022G31KT 02/M07 A303 RMK A01 T00161072  RH  052%=      5-min Rain = 0
KCXS 191630Z 34024G33KT 02/M07 A3031 RMK A01 T00181073  RH  051%=      5-min Rain = 0
KCXS 191635Z 34025G32KT 02/M08 A3031 RMK A01 T00181075  RH  050%=      5-min Rain = 0
KCXS 191640Z 34022G30KT 02/M07 A3031 RMK A01 T00201072  RH  050%=      5-min Rain = 0
KCXS 191645Z 33024G32KT 02/M07 A303 RMK A01 T00221072  RH  050%=      5-min Rain = 0
KCXS 191650Z 33027G33KT 02/M07 A303 RMK A01 T00221073  RH  050%=      5-min Rain = 0
KCXS 191655Z 34026G33KT 02/M07 A303 RMK A01 T00221074  RH  049%=      5-min Rain = 0
KCXS 191700Z 33024G32KT 02/M07 A3031 RMK A01 T00241072  RH  049%=      5-min Rain = 0
KCXS 191705Z 34023G30KT 03/M07 A3031 RMK A01 T00271072  RH  048%=      5-min Rain = 0
KCXS 191710Z 34023G33KT 03/M07 A3031 RMK A01 T00271072  RH  048%=      5-min Rain = 0
KCXS 191715Z 33023G28KT 03/M07 A3031 RMK A01 T00291071  RH  048%=      5-min Rain = 0
KCXS 191720Z 34022G29KT 03/M07 A3031 RMK A01 T00291071  RH  048%=      5-min Rain = 0
KCXS 191725Z 34025G33KT 03/M07 A3031 RMK A01 T00301071  RH  048%=      5-min Rain = 0
KCXS 191730Z 34026G34KT 03/M07 A3031 RMK A01 T00311070  RH  047%=      5-min Rain = 0
KCXS 191735Z 33026G34KT 03/M07 A3031 RMK A01 T00321070  RH  047%=      5-min Rain = 0
KCXS 191740Z 34024G30KT 03/M07 A3031 RMK A01 T00331070  RH  047%=      5-min Rain = 0
KCXS 191745Z 34023G30KT 03/M07 A3031 RMK A01 T00341070  RH  046%=      5-min Rain = 0
KCXS 191750Z 34024G32KT 04/M07 A3031 RMK A01 T00351071  RH  046%=      5-min Rain = 0
KCXS 191755Z 35024G30KT 03/M07 A3031 RMK A01 T00341071  RH  046%=      5-min Rain = 0
KCXS 191800Z 35023G30KT 04/M07 A3031 RMK A01 T00351070  RH  046%=      5-min Rain = 0
KCXS 191805Z 34022G28KT 04/M07 A3031 RMK A01 T00361068  RH  046%=      5-min Rain = 0
KCXS 191810Z 34022G27KT 04/M07 A303 RMK A01 T00371069  RH  046%=      5-min Rain = 0
KCXS 191815Z 35022G29KT 04/M07 A303 RMK A01 T00381068  RH  046%=      5-min Rain = 0
KCXS 191820Z 34020G26KT 04/M06 A303 RMK A01 T00401064  RH  047%=      5-min Rain = 0
KCXS 191825Z 34021G28KT 04/M06 A3029 RMK A01 T00431063  RH  046%=      5-min Rain = 0
KCXS 191830Z 35022G29KT 04/M06 A3029 RMK A01 T00441062  RH  046%=      5-min Rain = 0
KCXS 191835Z 34022G28KT 04/M06 A3029 RMK A01 T00441061  RH  046%=      5-min Rain = 0
KCXS 191840Z 34018G23KT 05/M06 A3029 RMK A01 T00461060  RH  046%=      5-min Rain = 0
KCXS 191845Z 34020G26KT 05/M06 A3029 RMK A01 T00491060  RH  045%=      5-min Rain = 0
KCXS 191850Z 33020G27KT 05/M06 A3029 RMK A01 T00471060  RH  046%=      5-min Rain = 0
KCXS 191855Z 34023G31KT 05/M06 A3029 RMK A01 T00451061  RH  046%=      5-min Rain = 0
KCXS 191900Z 34020G27KT 05/M06 A3029 RMK A01 T00491061  RH  045%=      5-min Rain = 0
KCXS 191905Z 34020G28KT 05/M06 A3029 RMK A01 T00511060  RH  045%=      5-min Rain = 0
KCXS 191910Z 34021G28KT 05/M06 A3029 RMK A01 T00521060  RH  044%=      5-min Rain = 0
KCXS 191915Z 34021G32KT 05/M06 A3028 RMK A01 T00521063  RH  043%=      5-min Rain = 0
KCXS 191920Z 33021G28KT 05/M06 A3028 RMK A01 T00521064  RH  043%=      5-min Rain = 0
KCXS 191925Z 35023G29KT 05/M07 A3028 RMK A01 T00501066  RH  043%=      5-min Rain = 0
KCXS 191930Z 35021G28KT 05/M07 A3028 RMK A01 T00511067  RH  042%=      5-min Rain = 0
KCXS 191935Z 34021G27KT 05/M07 A3027 RMK A01 T00501068  RH  042%=      5-min Rain = 0
KCXS 191940Z 34020G28KT 05/M07 A3027 RMK A01 T00511067  RH  042%=      5-min Rain = 0
KCXS 191945Z 34017G23KT 06/M07 A3027 RMK A01 T00551067  RH  041%=      5-min Rain = 0
KCXS 191950Z 34021G28KT 05/M07 A3027 RMK A01 T00541068  RH  041%=      5-min Rain = 0
KCXS 191955Z 34017G22KT 05/M07 A3027 RMK A01 T00531069  RH  041%=      5-min Rain = 0
KCXS 192000Z 35018G26KT 05/M07 A3026 RMK A01 T00541070  RH  040%=      5-min Rain = 0
KCXS 192005Z 35016G25KT 05/M07 A3026 RMK A01 T00531073  RH  040%=      5-min Rain = 0
KCXS 192010Z 34019G25KT 05/M07 A3026 RMK A01 T00541072  RH  040%=      5-min Rain = 0
KCXS 192015Z 35014KT 06/M07 A3026 RMK A01 T00551074  RH  039%=      5-min Rain = 0
KCXS 192020Z 36017KT 06/M07 A3026 RMK A01 T00561074  RH  039%=      5-min Rain = 0
KCXS 192025Z 35012G18KT 06/M07 A3026 RMK A01 T00551074  RH  039%=      5-min Rain = 0
KCXS 192030Z 34016G22KT 06/M07 A3026 RMK A01 T00591072  RH  038%=      5-min Rain = 0
KCXS 192035Z 34016KT 06/M07 A3025 RMK A01 T00581072  RH  039%=      5-min Rain = 0
KCXS 192040Z 35018G23KT 06/M07 A3025 RMK A01 T00581072  RH  039%=      5-min Rain = 0
KCXS 192045Z 35015G20KT 06/M07 A3025 RMK A01 T00581072  RH  039%=      5-min Rain = 0
KCXS 192050Z 34014G20KT 06/M07 A3025 RMK A01 T00621071  RH  038%=      5-min Rain = 0
KCXS 192055Z 34017G23KT 06/M07 A3025 RMK A01 T00621069  RH  038%=      5-min Rain = 0
KCXS 192100Z 34015G21KT 06/M07 A3025 RMK A01 T00611070  RH  038%=      5-min Rain = 0
KCXS 192105Z 34015G21KT 06/M07 A3026 RMK A01 T00631068  RH  039%=      5-min Rain = 0
KCXS 192110Z 35015KT 07/M07 A3025 RMK A01 T00651068  RH  038%=      5-min Rain = 0
KCXS 192115Z 35014G19KT 06/M07 A3026 RMK A01 T00641069  RH  038%=      5-min Rain = 0
KCXS 192120Z 35014G19KT 07/M07 A3026 RMK A01 T00661069  RH  038%=      5-min Rain = 0
KCXS 192125Z 34015G20KT 07/M07 A3026 RMK A01 T00661069  RH  037%=      5-min Rain = 0
KCXS 192130Z 34014KT 07/M07 A3026 RMK A01 T00671070  RH  037%=      5-min Rain = 0
KCXS 192135Z 34012G17KT 07/M07 A3027 RMK A01 T00651072  RH  037%=      5-min Rain = 0
KCXS 192140Z 34012G18KT 06/M07 A3027 RMK A01 T00631073  RH  037%=      5-min Rain = 0
KCXS 192145Z 35015KT 06/M07 A3027 RMK A01 T00641073  RH  037%=      5-min Rain = 0
KCXS 192150Z 36013G18KT 06/M07 A3027 RMK A01 T00641073  RH  037%=      5-min Rain = 0
KCXS 192155Z 34015KT 07/M07 A3027 RMK A01 T00661073  RH  036%=      5-min Rain = 0
KCXS 192200Z 34013G19KT 07/M07 A3027 RMK A01 T00661072  RH  037%=      5-min Rain = 0
KCXS 192205Z 35014KT 07/M07 A3027 RMK A01 T00651074  RH  036%=      5-min Rain = 0
KCXS 192210Z 35014G19KT 07/M07 A3027 RMK A01 T00661072  RH  037%=      5-min Rain = 0
KCXS 192215Z 34012KT 07/M07 A3027 RMK A01 T00671072  RH  036%=      5-min Rain = 0
KCXS 192220Z 33011G17KT 07/M07 A3027 RMK A01 T00671072  RH  036%=      5-min Rain = 0
KCXS 192225Z 35011KT 07/M07 A3028 RMK A01 T00661074  RH  036%=      5-min Rain = 0
KCXS 192230Z 35011KT 07/M07 A3028 RMK A01 T00651074  RH  036%=      5-min Rain = 0
KCXS 192235Z 35011KT 06/M08 A3028 RMK A01 T00641075  RH  036%=      5-min Rain = 0
KCXS 192240Z 36011KT 06/M07 A3028 RMK A01 T00641074  RH  036%=      5-min Rain = 0
KCXS 192245Z 35010G15KT 06/M07 A3028 RMK A01 T00641074  RH  036%=      5-min Rain = 0
KCXS 192250Z 35010KT 06/M07 A3028 RMK A01 T00631073  RH  037%=      5-min Rain = 0
KCXS 192255Z 36010KT 06/M07 A3028 RMK A01 T00631074  RH  037%=      5-min Rain = 0
KCXS 192300Z 35011KT 06/M07 A3028 RMK A01 T00621074  RH  037%=      5-min Rain = 0
KCXS 192305Z 35010KT 06/M07 A3028 RMK A01 T00611073  RH  038%=      5-min Rain = 0
KCXS 192310Z 01010KT 06/M07 A3028 RMK A01 T00591074  RH  038%=      5-min Rain = 0
KCXS 192315Z 00009KT 06/M07 A3028 RMK A01 T00581073  RH  038%=      5-min Rain = 0
KCXS 192320Z 36011KT 06/M07 A3028 RMK A01 T00571074  RH  038%=      5-min Rain = 0
KCXS 192325Z 00009KT 06/M07 A3028 RMK A01 T00551074  RH  039%=      5-min Rain = 0
KCXS 192330Z 01009KT 05/M08 A3028 RMK A01 T00531076  RH  039%=      5-min Rain = 0
KCXS 192335Z 01007KT 05/M08 A3028 RMK A01 T00501077  RH  039%=      5-min Rain = 0
KCXS 192340Z 01007KT 05/M08 A3028 RMK A01 T00471076  RH  040%=      5-min Rain = 0
KCXS 192345Z 01007KT 05/M08 A3028 RMK A01 T00451077  RH  041%=      5-min Rain = 0
KCXS 192350Z 02006KT 04/M08 A3028 RMK A01 T00421077  RH  042%=      5-min Rain = 0
KCXS 192355Z 02006KT 04/M08 A3028 RMK A01 T00391077  RH  043%=      5-min Rain = 0
KCXS 200000Z 01007KT 04/M08 A3029 RMK A01 T00351077  RH  044%=      5-min Rain = 0
KCXS 200005Z 01007KT 03/M08 A3029 RMK A01 T00311077  RH  045%=      5-min Rain = 0
KCXS 200010Z 01007KT 03/M08 A3028 RMK A01 T00261077  RH  046%=      5-min Rain = 0
KCXS 200015Z 01008KT 03/M08 A3028 RMK A01 T00251077  RH  047%=      5-min Rain = 0
KCXS 200020Z 01007KT 03/M08 A3028 RMK A01 T00261077  RH  047%=      5-min Rain = 0
KCXS 200025Z 00007KT 02/M08 A3029 RMK A01 T00231076  RH  048%=      5-min Rain = 0
KCXS 200030Z 01007KT 02/M08 A3029 RMK A01 T00201076  RH  049%=      5-min Rain = 0
KCXS 200035Z 01007KT 02/M08 A3029 RMK A01 T00171077  RH  050%=      5-min Rain = 0
KCXS 200040Z 02006KT 01/M08 A3029 RMK A01 T00141077  RH  050%=      5-min Rain = 0
KCXS 200045Z 02006KT 01/M08 A3029 RMK A01 T00121078  RH  051%=      5-min Rain = 0
KCXS 200050Z 03005KT 01/M08 A3029 RMK A01 T00111078  RH  051%=      5-min Rain = 0
KCXS 200055Z 03005KT 01/M08 A3029 RMK A01 T00111078  RH  052%=      5-min Rain = 0
KCXS 200100Z 04006KT 01/M08 A303 RMK A01 T00111077  RH  052%=      5-min Rain = 0
KCXS 200105Z 04007KT 01/M08 A3029 RMK A01 T00091077  RH  053%=      5-min Rain = 0
KCXS 200110Z 04006KT 01/M08 A303 RMK A01 T00101077  RH  052%=      5-min Rain = 0
KCXS 200115Z 04008KT 01/M08 A303 RMK A01 T00111077  RH  052%=      5-min Rain = 0
KCXS 200120Z 04007KT 01/M08 A303 RMK A01 T00101077  RH  052%=      5-min Rain = 0
KCXS 200125Z 03007KT 01/M08 A303 RMK A01 T00071077  RH  053%=      5-min Rain = 0
KCXS 200130Z 03008KT 00/M08 A303 RMK A01 T00041076  RH  055%=      5-min Rain = 0
KCXS 200135Z 03008KT 00/M08 A3029 RMK A01 T00041075  RH  055%=      5-min Rain = 0
KCXS 200140Z 03007KT 00/M08 A3029 RMK A01 T00041076  RH  055%=      5-min Rain = 0
KCXS 200145Z 04007KT 00/M08 A3029 RMK A01 T00031076  RH  055%=      5-min Rain = 0
KCXS 200150Z 04006KT 00/M08 A3029 RMK A01 T00031077  RH  055%=      5-min Rain = 0
KCXS 200155Z 05006KT 00/M08 A3029 RMK A01 T00021077  RH  055%=      5-min Rain = 0
KCXS 200200Z 05007KT 00/M08 A3029 RMK A01 T00021076  RH  056%=      5-min Rain = 0
KCXS 200205Z 05007KT 00/M08 A3028 RMK A01 T00011077  RH  056%=      5-min Rain = 0
KCXS 200210Z 05007KT 00/08 A3028 RMK A01 T00000-77  RH  056%=      5-min Rain = 0
KCXS 200215Z 05007KT M00/M08 A3028 RMK A01 T10011077  RH  057%=      5-min Rain = 0
KCXS 200220Z 04007KT 00/08 A3028 RMK A01 T00-00-76  RH  056%=      5-min Rain = 0
KCXS 200225Z 04007KT 00/08 A3028 RMK A01 T00000-77  RH  056%=      5-min Rain = 0
KCXS 200230Z 03006KT M00/M08 A3029 RMK A01 T10021077  RH  057%=      5-min Rain = 0
KCXS 200235Z 03006KT M00/M08 A3029 RMK A01 T10031077  RH  057%=      5-min Rain = 0
KCXS 200240Z 03006KT M00/M08 A303 RMK A01 T10031077  RH  057%=      5-min Rain = 0
KCXS 200245Z 03005KT M00/M08 A303 RMK A01 T10041077  RH  058%=      5-min Rain = 0
KCXS 200250Z 01005KT M01/M08 A303 RMK A01 T10061077  RH  059%=      5-min Rain = 0
KCXS 200255Z 35005KT M01/M08 A3031 RMK A01 T10081076  RH  060%=      5-min Rain = 0
KCXS 200300Z 36006KT M01/M08 A3031 RMK A01 T10101076  RH  061%=      5-min Rain = 0
KCXS 200305Z 01006KT M01/M08 A3031 RMK A01 T10121077  RH  061%=      5-min Rain = 0
KCXS 200310Z 01005KT M01/M08 A3031 RMK A01 T10121077  RH  061%=      5-min Rain = 0
KCXS 200315Z 02005KT M01/M08 A3031 RMK A01 T10111078  RH  060%=      5-min Rain = 0
KCXS 200320Z 01005KT M01/M08 A3031 RMK A01 T10081078  RH  059%=      5-min Rain = 0
KCXS 200325Z 01005KT M01/M08 A3031 RMK A01 T10081078  RH  059%=      5-min Rain = 0
KCXS 200330Z 01005KT M01/M08 A3031 RMK A01 T10091078  RH  060%=      5-min Rain = 0
KCXS 200335Z 02005KT M01/M08 A3032 RMK A01 T10101078  RH  060%=      5-min Rain = 0
KCXS 200340Z 04004KT M01/M08 A3032 RMK A01 T10091078  RH  060%=      5-min Rain = 0
KCXS 200345Z 05004KT M01/M08 A3032 RMK A01 T10071078  RH  059%=      5-min Rain = 0
KCXS 200350Z 05003KT M01/M08 A3032 RMK A01 T10061078  RH  058%=      5-min Rain = 0
KCXS 200355Z 07003KT M01/M08 A3032 RMK A01 T10091077  RH  060%=      5-min Rain = 0
KCXS 200400Z 06005KT M01/M08 A3032 RMK A01 T10111077  RH  061%=      5-min Rain = 0
KCXS 200405Z 06007KT M01/M08 A3032 RMK A01 T10121075  RH  062%=      5-min Rain = 0
KCXS 200410Z 07006KT M01/M08 A3032 RMK A01 T10141076  RH  063%=      5-min Rain = 0
KCXS 200415Z 09004KT M02/M08 A3032 RMK A01 T10161076  RH  064%=      5-min Rain = 0
KCXS 200420Z 10005KT M02/M08 A3031 RMK A01 T10181075  RH  065%=      5-min Rain = 0
KCXS 200425Z 10006KT M02/M08 A3032 RMK A01 T10221075  RH  067%=      5-min Rain = 0
KCXS 200430Z 10007KT M02/M08 A3031 RMK A01 T10231075  RH  067%=      5-min Rain = 0
KCXS 200435Z 10008KT M02/M07 A3031 RMK A01 T10241074  RH  069%=      5-min Rain = 0
KCXS 200440Z 10009KT M03/M07 A303 RMK A01 T10251073  RH  070%=      5-min Rain = 0
KCXS 200445Z 09009KT M02/M07 A3029 RMK A01 T10241072  RH  070%=      5-min Rain = 0
KCXS 200450Z 09007KT M02/M07 A303 RMK A01 T10241073  RH  069%=      5-min Rain = 0
KCXS 200455Z 11007KT M03/M07 A303 RMK A01 T10251073  RH  069%=      5-min Rain = 0
KCXS 200500Z 11008KT M03/M07 A303 RMK A01 T10271073  RH  071%=      5-min Rain = 0
KCXS 200505Z 10008KT M03/M07 A303 RMK A01 T10261074  RH  069%=      5-min Rain = 0
KCXS 200510Z 10007KT M03/M07 A3031 RMK A01 T10251074  RH  069%=      5-min Rain = 0
KCXS 200515Z 11007KT M03/M07 A3031 RMK A01 T10271074  RH  070%=      5-min Rain = 0
KCXS 200520Z 10008KT M03/M08 A3032 RMK A01 T10281075  RH  070%=      5-min Rain = 0
KCXS 200525Z 12006KT M03/M08 A3032 RMK A01 T10281075  RH  070%=      5-min Rain = 0
KCXS 200530Z 12006KT M03/M07 A3032 RMK A01 T10331074  RH  073%=      5-min Rain = 0
KCXS 200535Z 11007KT M04/M07 A3032 RMK A01 T10351074  RH  074%=      5-min Rain = 0
KCXS 200540Z 12006KT M04/M08 A3032 RMK A01 T10351075  RH  074%=      5-min Rain = 0
KCXS 200545Z 11007KT M04/M08 A3032 RMK A01 T10351075  RH  074%=      5-min Rain = 0
KCXS 200550Z 13007KT M04/M08 A3033 RMK A01 T10351076  RH  073%=      5-min Rain = 0
KCXS 200555Z 14006KT M04/M08 A3033 RMK A01 T10381076  RH  075%=      5-min Rain = 0

Page generated in 0.0126 seconds.